Time;durP1;ratioP1;P1;durP2;ratioP2;P2;SDS_P1;SDS_P2;PMS_P1;PMS_P2;Temp;Humidity;BMP_temperature;BMP_pressure;BME280_temperature;BME280_humidity;BME280_pressure;Samples;Min_cycle;Max_cycle;Signal;HPM_P1;HPM_P2
2022/06/14 00:03:01;;;;;;;4.70;1.80;;;;;;;;;;4939056;29;20441;-74
2022/06/14 00:05:28;;;;;;;6.17;2.30;;;;;;;;;;4948545;28;20544;-73
2022/06/14 00:07:55;;;;;;;7.80;2.70;;;;;;;;;;4951674;28;20807;-74
2022/06/14 00:10:25;;;;;;;4.03;2.10;;;;;;;;;;4956636;28;20449;-74
2022/06/14 00:12:52;;;;;;;4.37;2.00;;;;;;;;;;4957519;29;20933;-74
2022/06/14 00:15:19;;;;;;;4.80;2.40;;;;;;;;;;4956835;29;20493;-74
2022/06/14 00:17:47;;;;;;;8.43;2.67;;;;;;;;;;4958010;28;20489;-74
2022/06/14 00:20:14;;;;;;;3.87;1.83;;;;;;;;;;4958721;28;20441;-74
2022/06/14 00:22:41;;;;;;;5.23;2.13;;;;;;;;;;4948539;29;20797;-73
2022/06/14 00:25:09;;;;;;;3.50;1.83;;;;;;;;;;4942947;29;20434;-75
2022/06/14 00:27:37;;;;;;;4.60;2.07;;;;;;;;;;4951723;29;20442;-74
2022/06/14 00:30:05;;;;;;;4.27;2.00;;;;;;;;;;4956448;28;20448;-73
2022/06/14 00:32:32;;;;;;;4.33;2.20;;;;;;;;;;4956459;29;20441;-74
2022/06/14 00:34:59;;;;;;;4.73;1.80;;;;;;;;;;4956662;28;20485;-74
2022/06/14 00:37:27;;;;;;;2.40;1.83;;;;;;;;;;4956255;29;20480;-74
2022/06/14 00:39:54;;;;;;;4.50;2.03;;;;;;;;;;4957556;28;20454;-75
2022/06/14 00:42:23;;;;;;;3.50;2.20;;;;;;;;;;4958403;28;20528;-74
2022/06/14 00:45:05;;;;;;;6.30;2.20;;;;;;;;;;4944479;28;20493;-74
2022/06/14 00:47:37;;;;;;;6.00;1.80;;;;;;;;;;4938094;28;20444;-74
2022/06/14 00:50:08;;;;;;;4.70;2.33;;;;;;;;;;4950896;28;20943;-74
2022/06/14 00:52:38;;;;;;;5.30;2.40;;;;;;;;;;4956092;28;20541;-74
2022/06/14 00:55:09;;;;;;;2.60;1.90;;;;;;;;;;4956089;28;20489;-74
2022/06/14 00:57:40;;;;;;;4.20;2.10;;;;;;;;;;4955412;28;20496;-74
2022/06/14 01:00:09;;;;;;;3.80;1.70;;;;;;;;;;4955788;28;20446;-74
2022/06/14 01:02:41;;;;;;;3.00;2.20;;;;;;;;;;4956679;28;20880;-74
2022/06/14 01:05:12;;;;;;;2.13;1.87;;;;;;;;;;4957987;29;20449;-74
2022/06/14 01:07:41;;;;;;;4.40;2.50;;;;;;;;;;4944368;28;20435;-74
2022/06/14 01:10:11;;;;;;;4.37;2.07;;;;;;;;;;4942145;29;20456;-73
2022/06/14 01:12:40;;;;;;;2.70;2.20;;;;;;;;;;4935252;29;20452;-75
2022/06/14 01:15:10;;;;;;;3.60;1.97;;;;;;;;;;4935863;29;20581;-74
2022/06/14 01:17:41;;;;;;;6.07;2.60;;;;;;;;;;4935247;29;20987;-74
2022/06/14 01:20:08;;;;;;;4.40;2.43;;;;;;;;;;4936055;29;20477;-73
2022/06/14 01:22:37;;;;;;;5.90;2.27;;;;;;;;;;4938781;29;20446;-74
2022/06/14 01:25:05;;;;;;;4.60;2.47;;;;;;;;;;4957628;29;20544;-74
2022/06/14 01:27:34;;;;;;;4.63;2.27;;;;;;;;;;4957407;29;20445;-73
2022/06/14 01:30:04;;;;;;;4.97;2.23;;;;;;;;;;4943438;28;20521;-74
2022/06/14 01:32:32;;;;;;;3.23;2.27;;;;;;;;;;4941055;29;20445;-74
2022/06/14 01:35:01;;;;;;;3.63;2.70;;;;;;;;;;4952902;28;21101;-74
2022/06/14 01:37:28;;;;;;;2.97;2.20;;;;;;;;;;4954791;28;20493;-74
2022/06/14 01:39:58;;;;;;;6.37;2.50;;;;;;;;;;4955221;28;20448;-75
2022/06/14 01:42:28;;;;;;;4.10;2.53;;;;;;;;;;4955836;28;20448;-74
2022/06/14 01:45:00;;;;;;;6.80;2.53;;;;;;;;;;4955109;28;20480;-74
2022/06/14 01:47:33;;;;;;;3.70;2.40;;;;;;;;;;4957222;28;20811;-73
2022/06/14 01:52:52;;;;;;;5.37;2.40;;;;;;;;;;4941021;29;21752;-74
2022/06/14 01:55:23;;;;;;;3.53;2.10;;;;;;;;;;4944602;29;20487;-74
2022/06/14 01:57:55;;;;;;;5.43;2.70;;;;;;;;;;4954486;28;20477;-73
2022/06/14 02:00:26;;;;;;;6.23;2.67;;;;;;;;;;4954690;28;20442;-74
2022/06/14 02:04:36;;;;;;;5.03;2.43;;;;;;;;;;4955134;28;20484;-74
2022/06/14 02:05:45;;;;;;;3.87;2.10;;;;;;;;;;4940979;28;20955;-75
2022/06/14 02:08:14;;;;;;;2.63;2.20;;;;;;;;;;4955559;29;20471;-74
2022/06/14 02:10:45;;;;;;;3.00;1.80;;;;;;;;;;4955730;29;20456;-75
2022/06/14 02:13:15;;;;;;;4.70;2.67;;;;;;;;;;4949508;28;20446;-73
2022/06/14 02:15:45;;;;;;;5.20;2.37;;;;;;;;;;4940972;28;20493;-74
2022/06/14 02:18:15;;;;;;;5.10;1.97;;;;;;;;;;4947861;28;20438;-74
2022/06/14 02:20:43;;;;;;;6.13;2.30;;;;;;;;;;4954429;28;20442;-73
2022/06/14 02:23:14;;;;;;;8.70;3.30;;;;;;;;;;4954226;28;20955;-74
2022/06/14 02:25:48;;;;;;;7.07;2.80;;;;;;;;;;4954318;28;20485;-74
2022/06/14 02:28:18;;;;;;;5.13;2.53;;;;;;;;;;4954834;28;20445;-75
2022/06/14 02:30:47;;;;;;;4.80;2.30;;;;;;;;;;4955466;28;20465;-73
2022/06/14 02:33:18;;;;;;;4.30;2.40;;;;;;;;;;4955296;29;20446;-75
2022/06/14 02:35:48;;;;;;;4.30;2.57;;;;;;;;;;4946784;28;20492;-73
2022/06/14 02:38:17;;;;;;;4.33;2.63;;;;;;;;;;4940345;29;20466;-73
2022/06/14 02:40:48;;;;;;;6.20;2.70;;;;;;;;;;4936387;29;20445;-75
2022/06/14 02:43:17;;;;;;;5.50;2.80;;;;;;;;;;4934840;29;20533;-75
2022/06/14 02:45:47;;;;;;;3.07;2.00;;;;;;;;;;4933792;29;20471;-75
2022/06/14 02:48:17;;;;;;;4.60;2.50;;;;;;;;;;4935071;29;20952;-75
2022/06/14 02:50:47;;;;;;;9.50;3.10;;;;;;;;;;4934888;29;20447;-74
2022/06/14 02:53:16;;;;;;;8.20;2.70;;;;;;;;;;4953527;29;20454;-74
2022/06/14 02:55:47;;;;;;;5.73;2.37;;;;;;;;;;4955749;29;20497;-74
2022/06/14 02:58:19;;;;;;;3.80;2.53;;;;;;;;;;4945701;28;20472;-75
2022/06/14 03:00:48;;;;;;;7.10;2.20;;;;;;;;;;4940139;29;20794;-74
2022/06/14 03:03:19;;;;;;;6.20;3.00;;;;;;;;;;4935547;29;20537;-74
2022/06/14 03:05:50;;;;;;;6.47;3.37;;;;;;;;;;4934198;29;20474;-74
2022/06/14 03:08:21;;;;;;;3.93;2.60;;;;;;;;;;4934673;29;20439;-74
2022/06/14 03:10:58;;;;;;;8.00;3.37;;;;;;;;;;4933907;29;20451;-74
2022/06/14 03:13:29;;;;;;;9.60;2.87;;;;;;;;;;4934354;29;20949;-74
2022/06/14 03:16:02;;;;;;;4.77;2.60;;;;;;;;;;4955322;28;20493;-74
2022/06/14 03:18:34;;;;;;;4.03;2.50;;;;;;;;;;4955772;28;20446;-75
2022/06/14 03:21:07;;;;;;;9.20;2.87;;;;;;;;;;4941634;29;20443;-74
2022/06/14 03:23:39;;;;;;;4.83;3.03;;;;;;;;;;4940131;28;20572;-73
2022/06/14 03:26:13;;;;;;;3.00;2.30;;;;;;;;;;4952466;28;20461;-73
2022/06/14 03:28:43;;;;;;;5.43;3.10;;;;;;;;;;4952995;29;20450;-73
2022/06/14 03:31:12;;;;;;;4.43;3.07;;;;;;;;;;4953327;28;20445;-74
2022/06/14 03:33:41;;;;;;;5.67;2.70;;;;;;;;;;4953807;28;20438;-74
2022/06/14 03:36:10;;;;;;;5.57;2.70;;;;;;;;;;4953049;28;20493;-73
2022/06/14 03:38:41;;;;;;;4.50;2.47;;;;;;;;;;4955010;28;20532;-74
2022/06/14 03:41:11;;;;;;;7.70;3.13;;;;;;;;;;4954382;28;20930;-73
2022/06/14 03:43:39;;;;;;;5.30;2.90;;;;;;;;;;4937681;29;20443;-73
2022/06/14 03:46:11;;;;;;;6.53;3.00;;;;;;;;;;4939471;29;20984;-74
2022/06/14 03:48:40;;;;;;;7.03;3.07;;;;;;;;;;4932027;29;20944;-74
2022/06/14 03:51:11;;;;;;;4.00;2.70;;;;;;;;;;4933674;29;20457;-74
2022/06/14 03:53:46;;;;;;;6.60;2.70;;;;;;;;;;4934616;29;20445;-74
2022/06/14 03:56:24;;;;;;;4.13;2.53;;;;;;;;;;4933309;29;20975;-74
2022/06/14 03:59:00;;;;;;;4.87;2.87;;;;;;;;;;4945728;29;20461;-74
2022/06/14 04:01:30;;;;;;;6.83;3.00;;;;;;;;;;4955415;29;20445;-74
2022/06/14 04:04:06;;;;;;;5.00;3.00;;;;;;;;;;4950219;29;20991;-74
2022/06/14 04:06:36;;;;;;;6.30;2.73;;;;;;;;;;4939424;29;20900;-74
2022/06/14 04:09:09;;;;;;;5.90;2.87;;;;;;;;;;4943989;29;20448;-74
2022/06/14 04:11:45;;;;;;;4.10;2.60;;;;;;;;;;4952857;28;20456;-74
2022/06/14 04:14:21;;;;;;;5.60;2.43;;;;;;;;;;4951583;28;20449;-74
2022/06/14 04:16:53;;;;;;;6.97;2.77;;;;;;;;;;4952883;28;20528;-73
2022/06/14 04:19:26;;;;;;;5.73;2.70;;;;;;;;;;4952185;28;20892;-73
2022/06/14 04:21:57;;;;;;;2.60;2.13;;;;;;;;;;4954004;28;20939;-73
2022/06/14 04:24:32;;;;;;;8.40;3.20;;;;;;;;;;4954827;28;20789;-73
2022/06/14 04:27:05;;;;;;;5.73;2.80;;;;;;;;;;4944773;28;20494;-74
2022/06/14 04:29:35;;;;;;;4.90;2.80;;;;;;;;;;4939529;28;20442;-74
2022/06/14 04:32:04;;;;;;;4.67;2.80;;;;;;;;;;4934835;29;20534;-74
2022/06/14 04:34:35;;;;;;;12.33;3.67;;;;;;;;;;4932217;29;20452;-74
2022/06/14 04:37:05;;;;;;;3.00;2.33;;;;;;;;;;4933263;29;20494;-74
2022/06/14 04:39:35;;;;;;;5.60;2.87;;;;;;;;;;4932904;29;20447;-74
2022/06/14 04:42:06;;;;;;;4.97;2.60;;;;;;;;;;4933376;29;21043;-74
2022/06/14 04:44:37;;;;;;;6.63;2.57;;;;;;;;;;4935565;29;20447;-74
2022/06/14 04:47:06;;;;;;;4.57;2.60;;;;;;;;;;4934343;29;20569;-74
2022/06/14 04:49:35;;;;;;;6.40;2.70;;;;;;;;;;4938226;29;20430;-74
2022/06/14 04:52:05;;;;;;;3.53;2.70;;;;;;;;;;4939372;29;20804;-74
2022/06/14 04:54:38;;;;;;;6.40;3.07;;;;;;;;;;4950377;28;20452;-74
2022/06/14 04:57:09;;;;;;;3.20;2.50;;;;;;;;;;4955439;29;20497;-74
2022/06/14 04:59:39;;;;;;;6.17;2.90;;;;;;;;;;4956080;28;20832;-74
2022/06/14 05:02:09;;;;;;;7.67;3.10;;;;;;;;;;4956327;29;20930;-74
2022/06/14 05:04:38;;;;;;;4.37;2.33;;;;;;;;;;4954548;28;20503;-74
2022/06/14 05:07:07;;;;;;;8.17;3.07;;;;;;;;;;4957928;29;20471;-74
2022/06/14 05:09:36;;;;;;;4.67;2.60;;;;;;;;;;4957796;28;20936;-74
2022/06/14 05:12:06;;;;;;;6.10;3.20;;;;;;;;;;4943794;29;20528;-74
2022/06/14 05:14:36;;;;;;;5.33;2.30;;;;;;;;;;4942401;28;20913;-74
2022/06/14 05:17:06;;;;;;;5.83;2.57;;;;;;;;;;4936170;29;20473;-73
2022/06/14 05:19:39;;;;;;;7.23;3.30;;;;;;;;;;4936361;29;20521;-74
2022/06/14 05:22:09;;;;;;;6.70;3.60;;;;;;;;;;4936465;29;20537;-74
2022/06/14 05:24:37;;;;;;;7.43;3.50;;;;;;;;;;4936833;29;20446;-74
2022/06/14 05:27:12;;;;;;;6.37;2.93;;;;;;;;;;4938614;28;20481;-75
2022/06/14 05:29:45;;;;;;;5.57;2.77;;;;;;;;;;4957726;28;20441;-75
2022/06/14 05:32:17;;;;;;;5.80;3.03;;;;;;;;;;4957552;29;20456;-74
2022/06/14 05:34:49;;;;;;;7.50;3.27;;;;;;;;;;4941825;28;20446;-74
2022/06/14 05:37:18;;;;;;;6.00;3.37;;;;;;;;;;4940295;28;20489;-74
2022/06/14 05:39:49;;;;;;;4.90;3.13;;;;;;;;;;4935051;29;20454;-74
2022/06/14 05:42:18;;;;;;;6.97;3.13;;;;;;;;;;4935912;29;20497;-74
2022/06/14 05:44:48;;;;;;;4.63;3.00;;;;;;;;;;4936018;29;20781;-74
2022/06/14 05:47:17;;;;;;;4.80;2.40;;;;;;;;;;4936104;29;20466;-74
2022/06/14 05:49:46;;;;;;;6.77;2.90;;;;;;;;;;4940299;28;20449;-74
2022/06/14 05:52:15;;;;;;;5.27;2.47;;;;;;;;;;4941422;28;20851;-74
2022/06/14 05:54:45;;;;;;;3.67;2.73;;;;;;;;;;4939776;28;20538;-74
2022/06/14 05:57:18;;;;;;;6.13;2.80;;;;;;;;;;4950640;28;20505;-79
2022/06/14 05:59:47;;;;;;;5.40;3.03;;;;;;;;;;4951035;28;20548;-76
2022/06/14 06:02:18;;;;;;;7.53;3.50;;;;;;;;;;4951644;28;20810;-76
2022/06/14 06:04:49;;;;;;;4.73;2.87;;;;;;;;;;4951370;28;20787;-75
2022/06/14 06:07:18;;;;;;;5.63;2.80;;;;;;;;;;4949495;28;20580;-77
2022/06/14 06:09:47;;;;;;;5.93;3.10;;;;;;;;;;4937407;28;20448;-75
2022/06/14 06:12:17;;;;;;;8.43;3.50;;;;;;;;;;4937160;29;20438;-76
2022/06/14 06:14:49;;;;;;;7.63;3.30;;;;;;;;;;4930507;29;20817;-76
2022/06/14 06:17:20;;;;;;;4.70;2.80;;;;;;;;;;4931610;29;20490;-76
2022/06/14 06:19:52;;;;;;;5.20;3.50;;;;;;;;;;4932555;29;20819;-75
2022/06/14 06:22:21;;;;;;;9.37;3.80;;;;;;;;;;4932416;29;20447;-75
2022/06/14 06:24:50;;;;;;;10.03;3.30;;;;;;;;;;4940124;29;21305;-74
2022/06/14 06:27:17;;;;;;;6.53;3.30;;;;;;;;;;4952747;29;20473;-73
2022/06/14 06:29:48;;;;;;;8.03;2.80;;;;;;;;;;4949460;28;20451;-75
2022/06/14 06:32:16;;;;;;;8.43;2.77;;;;;;;;;;4937225;29;20885;-75
2022/06/14 06:34:45;;;;;;;3.43;2.10;;;;;;;;;;4935550;29;20940;-76
2022/06/14 06:37:15;;;;;;;5.13;2.30;;;;;;;;;;4931204;29;20502;-75
2022/06/14 06:39:46;;;;;;;9.37;3.00;;;;;;;;;;4931404;29;20458;-74
2022/06/14 06:42:16;;;;;;;4.97;2.33;;;;;;;;;;4931368;29;20450;-74
2022/06/14 06:44:48;;;;;;;4.00;2.33;;;;;;;;;;4932428;29;20456;-74
2022/06/14 06:47:20;;;;;;;5.07;2.73;;;;;;;;;;4941751;28;20651;-75
2022/06/14 06:49:54;;;;;;;4.80;2.53;;;;;;;;;;4952420;29;20489;-74
2022/06/14 06:52:23;;;;;;;7.33;3.30;;;;;;;;;;4947421;29;20947;-74
2022/06/14 06:54:55;;;;;;;5.57;2.83;;;;;;;;;;4936480;29;20445;-75
2022/06/14 06:57:24;;;;;;;5.27;3.23;;;;;;;;;;4934445;28;20490;-74
2022/06/14 06:59:53;;;;;;;3.93;2.63;;;;;;;;;;4931524;29;20465;-74
2022/06/14 07:02:23;;;;;;;5.60;2.60;;;;;;;;;;4931187;29;20454;-74
2022/06/14 07:07:38;;;;;;;4.80;2.87;;;;;;;;;;4930872;29;20439;-75
2022/06/14 07:10:08;;;;;;;8.33;3.43;;;;;;;;;;4947335;28;20552;-75
2022/06/14 07:12:39;;;;;;;7.90;3.30;;;;;;;;;;4952145;29;20841;-76
2022/06/14 07:15:09;;;;;;;5.47;3.00;;;;;;;;;;4944424;28;20781;-74
2022/06/14 07:17:41;;;;;;;7.20;3.40;;;;;;;;;;4935411;28;20486;-75
2022/06/14 07:20:14;;;;;;;5.07;2.93;;;;;;;;;;4943472;29;20461;-75
2022/06/14 07:22:43;;;;;;;6.97;2.77;;;;;;;;;;4950351;29;20446;-74
2022/06/14 07:25:13;;;;;;;5.00;2.57;;;;;;;;;;4948881;29;20437;-74
2022/06/14 07:27:43;;;;;;;6.40;2.90;;;;;;;;;;4950470;29;20450;-74
2022/06/14 07:30:13;;;;;;;8.10;2.93;;;;;;;;;;4949885;29;20455;-74
2022/06/14 07:32:43;;;;;;;4.73;2.90;;;;;;;;;;4951105;29;20461;-74
2022/06/14 07:35:12;;;;;;;7.17;3.33;;;;;;;;;;4952017;29;20472;-74
2022/06/14 07:37:42;;;;;;;4.67;2.77;;;;;;;;;;4943178;28;21028;-74
2022/06/14 07:40:16;;;;;;;6.00;2.57;;;;;;;;;;4936265;29;20489;-74
2022/06/14 07:42:47;;;;;;;6.43;2.90;;;;;;;;;;4943632;28;20450;-75
2022/06/14 07:45:17;;;;;;;5.10;2.63;;;;;;;;;;4949985;28;20452;-74
2022/06/14 07:47:48;;;;;;;8.73;3.17;;;;;;;;;;4949984;28;20876;-75
2022/06/14 07:50:22;;;;;;;5.83;2.83;;;;;;;;;;4950302;29;20456;-75
2022/06/14 07:52:51;;;;;;;4.80;2.60;;;;;;;;;;4948691;29;20500;-75
2022/06/14 07:55:21;;;;;;;4.80;2.63;;;;;;;;;;4950469;28;20492;-75
2022/06/14 07:57:52;;;;;;;6.23;2.60;;;;;;;;;;4951535;29;20504;-75
2022/06/14 08:03:04;;;;;;;6.03;2.90;;;;;;;;;;4935635;28;21082;-75
2022/06/14 08:05:35;;;;;;;6.50;2.40;;;;;;;;;;4945845;29;20459;-74
2022/06/14 08:08:04;;;;;;;4.27;2.17;;;;;;;;;;4949768;28;20445;-74
2022/06/14 08:10:34;;;;;;;6.67;2.83;;;;;;;;;;4948439;29;20475;-74
2022/06/14 08:13:03;;;;;;;8.17;3.37;;;;;;;;;;4950137;29;20446;-75
2022/06/14 08:15:32;;;;;;;4.67;2.43;;;;;;;;;;4949445;28;20558;-74
2022/06/14 08:18:01;;;;;;;5.53;2.17;;;;;;;;;;4953315;29;20574;-74
2022/06/14 08:20:32;;;;;;;5.40;2.73;;;;;;;;;;4954119;28;20449;-75
2022/06/14 08:23:02;;;;;;;6.43;2.43;;;;;;;;;;4944608;29;20802;-75
2022/06/14 08:25:31;;;;;;;5.50;3.23;;;;;;;;;;4939446;29;20549;-74
2022/06/14 08:28:03;;;;;;;7.87;3.50;;;;;;;;;;4935029;29;20438;-75
2022/06/14 08:30:33;;;;;;;4.63;2.80;;;;;;;;;;4935939;29;20447;-75
2022/06/14 08:33:04;;;;;;;6.23;3.07;;;;;;;;;;4937338;29;20452;-75
2022/06/14 08:35:34;;;;;;;7.07;3.13;;;;;;;;;;4937941;29;20463;-74
2022/06/14 08:38:06;;;;;;;6.43;3.50;;;;;;;;;;4936033;28;20503;-74
2022/06/14 08:40:38;;;;;;;6.83;2.67;;;;;;;;;;4957532;28;20537;-74
2022/06/14 08:43:09;;;;;;;5.30;3.00;;;;;;;;;;4957287;28;20438;-74
2022/06/14 08:45:39;;;;;;;6.10;2.67;;;;;;;;;;4946867;29;20462;-74
2022/06/14 08:48:07;;;;;;;4.90;2.60;;;;;;;;;;4942719;29;20449;-74
2022/06/14 08:50:45;;;;;;;4.73;2.80;;;;;;;;;;4938225;29;20447;-74
2022/06/14 08:53:22;;;;;;;5.37;2.43;;;;;;;;;;4936739;29;20545;-74
2022/06/14 08:55:58;;;;;;;5.67;2.70;;;;;;;;;;4936894;29;20477;-75
2022/06/14 08:58:41;;;;;;;7.10;3.03;;;;;;;;;;4937409;29;20496;-75
2022/06/14 09:01:12;;;;;;;6.27;3.50;;;;;;;;;;4940433;28;20530;-74
2022/06/14 09:03:52;;;;;;;4.30;2.60;;;;;;;;;;4958674;28;20528;-75
2022/06/14 09:06:32;;;;;;;6.80;3.40;;;;;;;;;;4945046;28;20458;-75
2022/06/14 09:09:25;;;;;;;7.40;2.77;;;;;;;;;;4938650;28;20450;-74
2022/06/14 09:12:04;;;;;;;6.83;2.87;;;;;;;;;;4950313;28;20469;-75
2022/06/14 09:14:46;;;;;;;6.00;3.23;;;;;;;;;;4952078;28;20457;-74
2022/06/14 09:17:29;;;;;;;5.73;2.70;;;;;;;;;;4951531;28;21260;-75
2022/06/14 09:20:02;;;;;;;7.43;3.50;;;;;;;;;;4952549;28;21059;-76
2022/06/14 09:22:35;;;;;;;6.50;2.50;;;;;;;;;;4951435;28;20545;-73
2022/06/14 09:25:09;;;;;;;6.27;2.60;;;;;;;;;;4954202;28;20458;-75
2022/06/14 09:27:47;;;;;;;8.67;3.27;;;;;;;;;;4951629;29;20453;-74
2022/06/14 09:30:21;;;;;;;7.40;2.87;;;;;;;;;;4937738;29;20449;-74
2022/06/14 09:33:10;;;;;;;8.27;2.93;;;;;;;;;;4942081;28;20445;-74
2022/06/14 09:35:47;;;;;;;6.70;3.27;;;;;;;;;;4952087;28;20477;-75
2022/06/14 09:38:24;;;;;;;6.23;3.23;;;;;;;;;;4951471;28;20559;-73
2022/06/14 09:40:59;;;;;;;7.33;3.17;;;;;;;;;;4950783;28;20770;-74
2022/06/14 09:43:39;;;;;;;6.20;2.73;;;;;;;;;;4951947;28;20445;-74
2022/06/14 09:46:21;;;;;;;8.80;2.93;;;;;;;;;;4952805;28;20477;-73
2022/06/14 09:48:57;;;;;;;6.23;3.03;;;;;;;;;;4953347;28;20557;-73
2022/06/14 09:51:38;;;;;;;5.90;2.90;;;;;;;;;;4941409;28;20445;-74
2022/06/14 09:54:17;;;;;;;6.87;2.70;;;;;;;;;;4937040;28;20444;-74
2022/06/14 09:56:55;;;;;;;12.03;3.40;;;;;;;;;;4953217;28;20520;-74
2022/06/14 09:59:30;;;;;;;6.63;2.90;;;;;;;;;;4954608;29;20445;-74
2022/06/14 10:02:01;;;;;;;6.03;3.20;;;;;;;;;;4954767;28;20466;-74
2022/06/14 10:04:43;;;;;;;7.23;3.10;;;;;;;;;;4954967;28;20454;-74
2022/06/14 10:07:17;;;;;;;7.40;2.73;;;;;;;;;;4954972;28;20495;-74
2022/06/14 10:09:52;;;;;;;6.07;2.37;;;;;;;;;;4956729;28;20832;-74
2022/06/14 10:12:33;;;;;;;6.30;3.07;;;;;;;;;;4953299;29;20445;-73
2022/06/14 10:15:03;;;;;;;5.43;2.63;;;;;;;;;;4941270;29;20442;-73
2022/06/14 10:17:40;;;;;;;3.67;2.47;;;;;;;;;;4937455;29;20486;-74
2022/06/14 10:20:18;;;;;;;6.20;3.00;;;;;;;;;;4935296;29;20807;-74
2022/06/14 10:22:53;;;;;;;6.03;3.07;;;;;;;;;;4934876;29;20449;-73
2022/06/14 10:25:25;;;;;;;7.60;3.00;;;;;;;;;;4935745;29;20446;-72
2022/06/14 10:30:49;;;;;;;5.20;2.80;;;;;;;;;;4954199;28;20967;-74
2022/06/14 10:33:30;;;;;;;9.53;2.80;;;;;;;;;;4955115;28;20450;-73
2022/06/14 10:36:07;;;;;;;5.00;2.80;;;;;;;;;;4944142;28;20462;-74
2022/06/14 10:38:49;;;;;;;6.00;3.20;;;;;;;;;;4940487;28;20569;-74
2022/06/14 10:41:21;;;;;;;6.93;3.17;;;;;;;;;;4952420;28;20448;-74
2022/06/14 10:43:52;;;;;;;6.40;3.23;;;;;;;;;;4953744;28;20449;-74
2022/06/14 10:46:21;;;;;;;7.27;3.43;;;;;;;;;;4954121;28;20458;-74
2022/06/14 10:49:03;;;;;;;5.40;2.70;;;;;;;;;;4954216;28;20973;-74
2022/06/14 10:51:37;;;;;;;4.93;2.70;;;;;;;;;;4953237;28;20557;-73
2022/06/14 10:54:09;;;;;;;7.77;3.17;;;;;;;;;;4955937;28;20434;-74
2022/06/14 10:56:45;;;;;;;10.90;3.43;;;;;;;;;;4954631;28;20993;-75
2022/06/14 10:59:26;;;;;;;8.70;4.10;;;;;;;;;;4940230;29;20477;-75
2022/06/14 11:01:58;;;;;;;7.53;3.37;;;;;;;;;;4943739;28;20437;-75
2022/06/14 11:04:29;;;;;;;8.33;3.93;;;;;;;;;;4953727;28;20951;-74
2022/06/14 11:07:03;;;;;;;6.00;2.90;;;;;;;;;;4953310;28;20469;-74
2022/06/14 11:09:36;;;;;;;8.80;3.27;;;;;;;;;;4953953;29;20449;-74
2022/06/14 11:12:07;;;;;;;4.90;2.87;;;;;;;;;;4954271;28;20434;-74
2022/06/14 11:14:39;;;;;;;5.27;3.33;;;;;;;;;;4954544;28;20453;-75
2022/06/14 11:17:18;;;;;;;8.53;4.07;;;;;;;;;;4954327;28;20470;-74
2022/06/14 11:19:53;;;;;;;12.60;3.40;;;;;;;;;;4949184;28;20440;-74
2022/06/14 11:22:29;;;;;;;5.93;3.27;;;;;;;;;;4940127;29;20433;-75
2022/06/14 11:25:00;;;;;;;7.27;2.90;;;;;;;;;;4936650;29;20434;-74
2022/06/14 11:27:32;;;;;;;6.00;3.37;;;;;;;;;;4933910;29;20471;-74
2022/06/14 11:30:06;;;;;;;7.50;2.60;;;;;;;;;;4934287;29;20451;-75
2022/06/14 11:32:36;;;;;;;4.47;3.00;;;;;;;;;;4934807;29;20444;-74
2022/06/14 11:35:07;;;;;;;7.20;3.17;;;;;;;;;;4934636;29;20474;-75
2022/06/14 11:37:40;;;;;;;6.47;2.80;;;;;;;;;;4953417;28;20990;-75
2022/06/14 11:40:10;;;;;;;8.23;3.00;;;;;;;;;;4955474;28;20451;-75
2022/06/14 11:42:45;;;;;;;5.90;3.37;;;;;;;;;;4944597;28;20442;-74
2022/06/14 11:45:21;;;;;;;4.93;3.10;;;;;;;;;;4939952;29;20451;-74
2022/06/14 11:47:51;;;;;;;9.37;2.90;;;;;;;;;;4950357;28;20549;-74
2022/06/14 11:50:23;;;;;;;10.27;3.33;;;;;;;;;;4952987;28;20943;-76
2022/06/14 11:53:00;;;;;;;7.37;3.00;;;;;;;;;;4953445;28;20449;-76
2022/06/14 11:55:29;;;;;;;6.40;3.50;;;;;;;;;;4953912;28;20864;-76
2022/06/14 11:58:11;;;;;;;6.03;3.10;;;;;;;;;;4952958;28;20847;-77
2022/06/14 12:00:45;;;;;;;6.87;3.07;;;;;;;;;;4955749;28;20460;-76
2022/06/14 12:03:23;;;;;;;5.30;2.60;;;;;;;;;;4955182;28;20445;-76
2022/06/14 12:05:54;;;;;;;6.27;3.43;;;;;;;;;;4942810;28;20468;-76
2022/06/14 12:08:30;;;;;;;6.93;2.90;;;;;;;;;;4943309;28;20931;-76
2022/06/14 12:11:00;;;;;;;6.57;2.63;;;;;;;;;;4937158;29;20812;-76
2022/06/14 12:13:39;;;;;;;12.23;2.90;;;;;;;;;;4937298;29;20890;-76
2022/06/14 12:16:11;;;;;;;4.83;2.70;;;;;;;;;;4937801;29;20472;-75
2022/06/14 12:18:44;;;;;;;6.10;2.80;;;;;;;;;;4936736;29;21039;-77
2022/06/14 12:21:15;;;;;;;5.60;2.87;;;;;;;;;;4947393;28;20465;-75
2022/06/14 12:23:45;;;;;;;5.77;3.40;;;;;;;;;;4958786;28;20445;-75
2022/06/14 12:29:02;;;;;;;6.43;3.27;;;;;;;;;;4942544;28;20485;-78
2022/06/14 12:31:35;;;;;;;4.97;3.07;;;;;;;;;;4946096;29;20935;-75
2022/06/14 12:34:06;;;;;;;9.70;3.97;;;;;;;;;;4956366;29;20492;-76
2022/06/14 12:36:38;;;;;;;6.90;2.97;;;;;;;;;;4956091;28;20556;-76
2022/06/14 12:39:09;;;;;;;6.00;3.13;;;;;;;;;;4956177;28;20501;-76
2022/06/14 12:41:39;;;;;;;8.30;3.43;;;;;;;;;;4956964;29;20437;-75
2022/06/14 12:44:13;;;;;;;6.43;2.80;;;;;;;;;;4957167;28;20456;-75
2022/06/14 12:46:44;;;;;;;8.03;3.70;;;;;;;;;;4957165;28;20487;-76
2022/06/14 12:49:16;;;;;;;6.07;3.83;;;;;;;;;;4955349;29;20439;-77
2022/06/14 12:51:48;;;;;;;9.17;3.90;;;;;;;;;;4943006;29;20431;-75
2022/06/14 12:54:18;;;;;;;7.40;3.30;;;;;;;;;;4946046;28;20788;-76
2022/06/14 12:56:51;;;;;;;4.40;2.67;;;;;;;;;;4955907;28;20473;-76
2022/06/14 12:59:24;;;;;;;6.40;3.70;;;;;;;;;;4955672;28;20481;-76
2022/06/14 13:01:56;;;;;;;7.53;3.40;;;;;;;;;;4955159;29;20815;-76
2022/06/14 13:04:24;;;;;;;5.83;3.40;;;;;;;;;;4956565;28;20448;-77
2022/06/14 13:06:59;;;;;;;4.37;3.30;;;;;;;;;;4956746;28;20485;-76
2022/06/14 13:09:30;;;;;;;6.50;3.40;;;;;;;;;;4957977;28;20445;-77
2022/06/14 13:12:10;;;;;;;12.87;4.17;;;;;;;;;;4953592;28;20438;-77
2022/06/14 13:14:41;;;;;;;6.00;3.10;;;;;;;;;;4942206;29;20467;-78
2022/06/14 13:17:15;;;;;;;6.30;3.00;;;;;;;;;;4945211;28;20464;-77
2022/06/14 13:19:45;;;;;;;6.20;3.33;;;;;;;;;;4955590;28;20492;-76
2022/06/14 13:22:20;;;;;;;9.33;3.33;;;;;;;;;;4955377;28;20477;-76
2022/06/14 13:24:53;;;;;;;6.77;2.90;;;;;;;;;;4955878;29;20456;-76
2022/06/14 13:27:23;;;;;;;8.83;3.27;;;;;;;;;;4955960;28;20458;-76
2022/06/14 13:29:57;;;;;;;6.97;2.83;;;;;;;;;;4955514;28;20658;-77
2022/06/14 13:32:32;;;;;;;10.20;3.20;;;;;;;;;;4957428;28;20500;-75
2022/06/14 13:35:05;;;;;;;5.27;2.60;;;;;;;;;;4951899;28;20521;-74
2022/06/14 13:37:38;;;;;;;4.63;2.87;;;;;;;;;;4941710;29;20469;-78
2022/06/14 13:40:08;;;;;;;7.10;2.90;;;;;;;;;;4938777;28;20478;-75
2022/06/14 13:42:38;;;;;;;10.63;3.33;;;;;;;;;;4936129;29;20482;-79
2022/06/14 13:45:10;;;;;;;9.03;3.20;;;;;;;;;;4935655;29;21028;-75
2022/06/14 13:47:42;;;;;;;7.60;3.50;;;;;;;;;;4935282;29;20847;-75
2022/06/14 13:50:13;;;;;;;5.70;2.70;;;;;;;;;;4931777;29;20829;-76
2022/06/14 13:52:43;;;;;;;6.97;3.47;;;;;;;;;;4942475;28;20469;-75
2022/06/14 13:55:23;;;;;;;4.60;2.93;;;;;;;;;;4937853;29;20541;-76
2022/06/14 13:57:51;;;;;;;5.07;2.87;;;;;;;;;;4944085;28;20445;-77
2022/06/14 14:00:21;;;;;;;10.27;3.30;;;;;;;;;;4951402;28;20497;-76
2022/06/14 14:02:52;;;;;;;4.20;2.80;;;;;;;;;;4951447;28;20445;-76
2022/06/14 14:05:23;;;;;;;3.10;2.73;;;;;;;;;;4951932;28;20445;-76
2022/06/14 14:07:57;;;;;;;4.57;2.90;;;;;;;;;;4951847;28;21014;-77
2022/06/14 14:10:31;;;;;;;5.60;3.10;;;;;;;;;;4952399;29;20459;-76
2022/06/14 14:13:03;;;;;;;3.43;2.47;;;;;;;;;;4953216;28;20447;-76
2022/06/14 14:15:34;;;;;;;4.93;2.83;;;;;;;;;;4944210;28;20458;-76
2022/06/14 14:18:08;;;;;;;6.57;3.07;;;;;;;;;;4937430;29;20445;-76
2022/06/14 14:20:39;;;;;;;5.10;2.80;;;;;;;;;;4945090;28;20445;-76
2022/06/14 14:23:10;;;;;;;4.83;3.07;;;;;;;;;;4950167;28;20450;-76
2022/06/14 14:25:38;;;;;;;5.07;2.80;;;;;;;;;;4950939;28;20476;-76
2022/06/14 14:28:15;;;;;;;9.00;3.47;;;;;;;;;;4951446;28;20468;-75
2022/06/14 14:30:48;;;;;;;7.37;2.97;;;;;;;;;;4950115;29;20452;-77
2022/06/14 14:33:22;;;;;;;3.57;2.40;;;;;;;;;;4933829;29;20928;-75
2022/06/14 14:35:51;;;;;;;5.47;2.47;;;;;;;;;;4932488;29;20462;-74
2022/06/14 14:38:23;;;;;;;6.73;2.53;;;;;;;;;;4936054;28;20474;-76
2022/06/14 14:43:37;;;;;;;5.57;2.50;;;;;;;;;;4947724;28;20426;-74
2022/06/14 14:46:06;;;;;;;5.13;2.53;;;;;;;;;;4950933;29;20473;-75
2022/06/14 14:48:37;;;;;;;7.93;2.77;;;;;;;;;;4950475;28;20460;-74
2022/06/14 14:51:08;;;;;;;4.63;2.73;;;;;;;;;;4951278;28;20444;-75
2022/06/14 14:53:38;;;;;;;4.93;2.93;;;;;;;;;;4950738;28;20538;-78
2022/06/14 14:56:09;;;;;;;5.03;2.77;;;;;;;;;;4952151;28;20469;-75
2022/06/14 14:58:39;;;;;;;6.30;2.70;;;;;;;;;;4952224;28;20970;-77
2022/06/14 15:06:39;;;;;;;4.93;2.97;;;;;;;;;;4949516;28;20466;-76
2022/06/14 15:09:08;;;;;;;4.27;2.47;;;;;;;;;;4948917;28;20449;-76
2022/06/14 15:11:40;;;;;;;6.43;3.03;;;;;;;;;;4950525;28;20457;-76
2022/06/14 15:14:17;;;;;;;5.23;2.93;;;;;;;;;;4950256;29;21018;-76
2022/06/14 15:16:51;;;;;;;5.47;3.10;;;;;;;;;;4950598;28;20497;-76
2022/06/14 15:22:05;;;;;;;4.87;2.90;;;;;;;;;;4945538;28;20946;-75
2022/06/14 15:24:34;;;;;;;6.87;2.47;;;;;;;;;;4939092;28;20433;-74
2022/06/14 15:27:02;;;;;;;4.43;2.53;;;;;;;;;;4944422;28;21347;-76
2022/06/14 15:29:33;;;;;;;4.37;2.60;;;;;;;;;;4952422;28;20450;-76
2022/06/14 15:32:03;;;;;;;4.07;2.93;;;;;;;;;;4953404;28;20930;-75
2022/06/14 15:34:34;;;;;;;6.03;2.50;;;;;;;;;;4953645;29;20512;-75
2022/06/14 15:37:10;;;;;;;4.00;2.60;;;;;;;;;;4952523;29;20979;-75